SAS2862 EKCH-ENBR
Flight info
| Callsign | SAS2862 |
|---|---|
| Flight time | N/A |
| Altitude | 36000 |
| Route | GOLGA DCT BADAB |
| Aircraft | A319/M-SDE3FGIJ1RWXY/LB1 |
Departure
| Time | N/A |
|---|---|
| Airport | Copenhagen Kastrup Airport (EKCH) |
Arrival
| Time | 2026-05-04 19:22 |
|---|---|
| Airport | Bergen Airport, Flesland (ENBR) |
| Time | Latitude | Longitude | Altitude | Speed | Heading |
|---|---|---|---|---|---|
| 2026-05-04 18:53 | 59.21221 | 5.96931 | 24764 ft | 391 kts | 339° |
| 2026-05-04 18:54 | 59.23872 | 5.95478 | 23884 ft | 399 kts | 337° |
| 2026-05-04 18:54 | 59.26469 | 5.93922 | 23475 ft | 389 kts | 336° |
| 2026-05-04 18:54 | 59.29030 | 5.92334 | 22826 ft | 383 kts | 336° |
| 2026-05-04 18:54 | 59.31585 | 5.90723 | 22134 ft | 378 kts | 336° |
| 2026-05-04 18:55 | 59.34040 | 5.89170 | 21455 ft | 374 kts | 336° |
| 2026-05-04 18:55 | 59.38945 | 5.86083 | 20055 ft | 366 kts | 336° |
| 2026-05-04 18:55 | 59.41362 | 5.84577 | 19341 ft | 362 kts | 337° |
| 2026-05-04 18:56 | 59.43754 | 5.83097 | 18666 ft | 358 kts | 337° |
| 2026-05-04 18:56 | 59.46120 | 5.81635 | 17983 ft | 355 kts | 337° |
| 2026-05-04 18:56 | 59.48457 | 5.80189 | 17312 ft | 350 kts | 337° |
| 2026-05-04 18:56 | 59.50769 | 5.78759 | 16620 ft | 346 kts | 337° |
| 2026-05-04 18:57 | 59.53052 | 5.77341 | 15944 ft | 342 kts | 337° |
| 2026-05-04 18:57 | 59.55306 | 5.75936 | 15269 ft | 339 kts | 337° |
| 2026-05-04 18:57 | 59.57528 | 5.74546 | 14611 ft | 335 kts | 337° |
| 2026-05-04 18:57 | 59.59744 | 5.73157 | 13948 ft | 332 kts | 337° |
| 2026-05-04 18:58 | 59.61929 | 5.71785 | 13422 ft | 324 kts | 337° |
| 2026-05-04 18:58 | 59.64025 | 5.70379 | 12809 ft | 315 kts | 333° |
| 2026-05-04 18:58 | 59.66045 | 5.68683 | 11938 ft | 315 kts | 332° |
| 2026-05-04 18:58 | 59.68039 | 5.66914 | 11185 ft | 312 kts | 331° |
| 2026-05-04 18:59 | 59.69943 | 5.65197 | 10952 ft | 293 kts | 331° |
| 2026-05-04 18:59 | 59.71778 | 5.63533 | 10468 ft | 286 kts | 331° |
| 2026-05-04 18:59 | 59.73574 | 5.61900 | 9920 ft | 282 kts | 331° |
| 2026-05-04 18:59 | 59.75325 | 5.60309 | 9439 ft | 275 kts | 331° |
| 2026-05-04 19:00 | 59.77036 | 5.58767 | 9112 ft | 265 kts | 331° |
| 2026-05-04 19:00 | 59.78683 | 5.57286 | 8779 ft | 255 kts | 331° |
| 2026-05-04 19:00 | 59.80276 | 5.55852 | 8471 ft | 250 kts | 331° |
| 2026-05-04 19:00 | 59.81858 | 5.54418 | 8167 ft | 250 kts | 331° |
| 2026-05-04 19:01 | 59.83435 | 5.52985 | 7857 ft | 249 kts | 331° |
| 2026-05-04 19:01 | 59.85004 | 5.51562 | 7550 ft | 248 kts | 332° |
| 2026-05-04 19:01 | 59.86566 | 5.50145 | 7251 ft | 246 kts | 332° |
| 2026-05-04 19:01 | 59.88127 | 5.48729 | 7000 ft | 247 kts | 332° |
| 2026-05-04 19:02 | 59.89690 | 5.47312 | 6712 ft | 246 kts | 333° |
| 2026-05-04 19:02 | 59.91247 | 5.45901 | 6410 ft | 245 kts | 333° |
| 2026-05-04 19:02 | 59.92797 | 5.44495 | 6091 ft | 244 kts | 333° |
| 2026-05-04 19:02 | 59.94340 | 5.43091 | 5784 ft | 244 kts | 333° |
| 2026-05-04 19:03 | 59.95877 | 5.41690 | 5476 ft | 243 kts | 333° |
| 2026-05-04 19:03 | 59.97402 | 5.40302 | 5173 ft | 243 kts | 333° |
| 2026-05-04 19:03 | 59.98935 | 5.38905 | 4868 ft | 242 kts | 334° |
| 2026-05-04 19:03 | 60.00467 | 5.37511 | 4547 ft | 241 kts | 334° |
| 2026-05-04 19:04 | 60.01989 | 5.36126 | 4253 ft | 240 kts | 334° |
| 2026-05-04 19:04 | 60.03488 | 5.34757 | 4108 ft | 232 kts | 333° |
| 2026-05-04 19:04 | 60.04927 | 5.33438 | 4003 ft | 222 kts | 333° |
| 2026-05-04 19:04 | 60.06294 | 5.32180 | 4000 ft | 212 kts | 334° |
| 2026-05-04 19:05 | 60.07629 | 5.30954 | 4012 ft | 209 kts | 331° |
| 2026-05-04 19:05 | 60.08947 | 5.29744 | 4008 ft | 208 kts | 333° |
| 2026-05-04 19:05 | 60.10255 | 5.28549 | 3962 ft | 211 kts | 335° |
| 2026-05-04 19:05 | 60.11689 | 5.27737 | 3601 ft | 215 kts | 346° |
| 2026-05-04 19:06 | 60.13160 | 5.27211 | 3303 ft | 215 kts | 348° |
| 2026-05-04 19:06 | 60.14631 | 5.26725 | 3000 ft | 213 kts | 349° |
| 2026-05-04 19:06 | 60.16074 | 5.26247 | 2704 ft | 208 kts | 349° |
| 2026-05-04 19:06 | 60.17484 | 5.25778 | 2414 ft | 205 kts | 349° |
| 2026-05-04 19:07 | 60.18856 | 5.25322 | 2134 ft | 194 kts | 349° |
| 2026-05-04 19:07 | 60.20122 | 5.24900 | 1885 ft | 179 kts | 349° |
| 2026-05-04 19:07 | 60.21300 | 5.24507 | 1635 ft | 164 kts | 349° |
| 2026-05-04 19:07 | 60.22362 | 5.24153 | 1415 ft | 143 kts | 348° |
| 2026-05-04 19:08 | 60.23284 | 5.23845 | 1215 ft | 128 kts | 349° |
| 2026-05-04 19:08 | 60.24140 | 5.23557 | 1029 ft | 123 kts | 349° |
| 2026-05-04 19:08 | 60.24975 | 5.23277 | 863 ft | 120 kts | 347° |
| 2026-05-04 19:08 | 60.25814 | 5.22996 | 664 ft | 124 kts | 349° |
| 2026-05-04 19:09 | 60.26636 | 5.22726 | 515 ft | 120 kts | 347° |
| 2026-05-04 19:09 | 60.27445 | 5.22452 | 347 ft | 120 kts | 348° |
| 2026-05-04 19:09 | 60.28263 | 5.22185 | 216 ft | 121 kts | 347° |
| 2026-05-04 19:09 | 60.29075 | 5.21925 | 169 ft | 106 kts | 348° |
| 2026-05-04 19:10 | 60.29873 | 5.21687 | 569 ft | 120 kts | 351° |
| 2026-05-04 19:10 | 60.30739 | 5.21392 | 1156 ft | 137 kts | 348° |
| 2026-05-04 19:10 | 60.31778 | 5.21005 | 1744 ft | 165 kts | 348° |
| 2026-05-04 19:10 | 60.32967 | 5.20541 | 2266 ft | 183 kts | 348° |
| 2026-05-04 19:11 | 60.34266 | 5.20020 | 2827 ft | 197 kts | 348° |
| 2026-05-04 19:11 | 60.35636 | 5.19497 | 3621 ft | 205 kts | 348° |
| 2026-05-04 19:11 | 60.37079 | 5.19030 | 3937 ft | 212 kts | 349° |
| 2026-05-04 19:11 | 60.38537 | 5.18580 | 4000 ft | 212 kts | 349° |
| 2026-05-04 19:12 | 60.40000 | 5.18174 | 4001 ft | 213 kts | 355° |
| 2026-05-04 19:12 | 60.42584 | 5.20965 | 4016 ft | 253 kts | 59° |
| 2026-05-04 19:12 | 60.42974 | 5.24499 | 4005 ft | 266 kts | 97° |
| 2026-05-04 19:13 | 60.42251 | 5.27907 | 4003 ft | 266 kts | 134° |
| 2026-05-04 19:13 | 60.40734 | 5.29802 | 4008 ft | 261 kts | 166° |
| 2026-05-04 19:13 | 60.38966 | 5.30653 | 4005 ft | 261 kts | 172° |
| 2026-05-04 19:13 | 60.37152 | 5.31262 | 4008 ft | 262 kts | 174° |
| 2026-05-04 19:14 | 60.35375 | 5.31813 | 4001 ft | 262 kts | 174° |
| 2026-05-04 19:14 | 60.33573 | 5.32402 | 4006 ft | 264 kts | 174° |
| 2026-05-04 19:14 | 60.31761 | 5.33040 | 4009 ft | 264 kts | 172° |
| 2026-05-04 19:14 | 60.29957 | 5.33714 | 4007 ft | 264 kts | 172° |
| 2026-05-04 19:15 | 60.28155 | 5.34410 | 4007 ft | 264 kts | 172° |
| 2026-05-04 19:15 | 60.26357 | 5.35113 | 4005 ft | 264 kts | 172° |
| 2026-05-04 19:15 | 60.24554 | 5.35826 | 3998 ft | 263 kts | 170° |
| 2026-05-04 19:15 | 60.22781 | 5.36533 | 3994 ft | 253 kts | 171° |
| 2026-05-04 19:16 | 60.21103 | 5.37201 | 3997 ft | 239 kts | 170° |
| 2026-05-04 19:16 | 60.19520 | 5.37825 | 3998 ft | 224 kts | 170° |
| 2026-05-04 19:16 | 60.18032 | 5.38410 | 3995 ft | 214 kts | 171° |
| 2026-05-04 19:16 | 60.16580 | 5.38982 | 4002 ft | 212 kts | 170° |
| 2026-05-04 19:17 | 60.15132 | 5.39551 | 3998 ft | 212 kts | 171° |
| 2026-05-04 19:17 | 60.13683 | 5.40011 | 3995 ft | 211 kts | 182° |
| 2026-05-04 19:17 | 60.12275 | 5.39383 | 3998 ft | 207 kts | 208° |
| 2026-05-04 19:17 | 60.11165 | 5.37603 | 4003 ft | 205 kts | 233° |
| 2026-05-04 19:18 | 60.10538 | 5.35061 | 3834 ft | 206 kts | 257° |
| 2026-05-04 19:18 | 60.10525 | 5.32238 | 3715 ft | 204 kts | 282° |
| 2026-05-04 19:18 | 60.11107 | 5.29699 | 3620 ft | 200 kts | 307° |
| 2026-05-04 19:18 | 60.12161 | 5.27891 | 3440 ft | 202 kts | 331° |
| 2026-05-04 19:19 | 60.13509 | 5.27086 | 3218 ft | 204 kts | 350° |
| 2026-05-04 19:19 | 60.14913 | 5.26627 | 2936 ft | 204 kts | 350° |
| 2026-05-04 19:19 | 60.16297 | 5.26173 | 2659 ft | 200 kts | 350° |
| 2026-05-04 19:19 | 60.17663 | 5.25720 | 2384 ft | 197 kts | 349° |
| 2026-05-04 19:20 | 60.19008 | 5.25272 | 2099 ft | 194 kts | 350° |
| 2026-05-04 19:20 | 60.20326 | 5.24833 | 1852 ft | 191 kts | 349° |
| 2026-05-04 19:20 | 60.21601 | 5.24407 | 1575 ft | 179 kts | 349° |
| 2026-05-04 19:20 | 60.22750 | 5.24024 | 1334 ft | 153 kts | 349° |
| 2026-05-04 19:21 | 60.23712 | 5.23702 | 1121 ft | 132 kts | 349° |
| 2026-05-04 19:21 | 60.24585 | 5.23409 | 937 ft | 123 kts | 348° |
| 2026-05-04 19:21 | 60.25415 | 5.23145 | 728 ft | 121 kts | 347° |
| 2026-05-04 19:21 | 60.26246 | 5.22863 | 541 ft | 121 kts | 348° |
| 2026-05-04 19:22 | 60.27071 | 5.22594 | 416 ft | 122 kts | 348° |
| 2026-05-04 19:22 | 60.27952 | 5.22286 | 259 ft | 128 kts | 351° |
| 2026-05-04 19:22 | 60.28802 | 5.21998 | 165 ft | 114 kts | 349° |
| 2026-05-04 19:22 | 60.29370 | 5.21810 | 154 ft | 42 kts | 350° |
| 2026-05-04 19:23 | 60.29580 | 5.21738 | 148 ft | 33 kts | 351° |
| 2026-05-04 19:23 | 60.29814 | 5.21661 | 155 ft | 34 kts | 350° |
| 2026-05-04 19:23 | 60.29976 | 5.21602 | 161 ft | 16 kts | 351° |
| 2026-05-04 19:23 | 60.30041 | 5.21739 | 160 ft | 12 kts | 80° |
| 2026-05-04 19:24 | 60.30051 | 5.21836 | 160 ft | 8 kts | 81° |
| 2026-05-04 19:24 | 60.30002 | 5.21916 | 157 ft | 13 kts | 171° |
| 2026-05-04 19:24 | 60.29898 | 5.21950 | 154 ft | 18 kts | 171° |
| 2026-05-04 19:24 | 60.29770 | 5.21994 | 148 ft | 5 kts | 171° |
| 2026-05-04 19:25 | 60.29722 | 5.22009 | 148 ft | 9 kts | 171° |
| 2026-05-04 19:25 | 60.29652 | 5.22033 | 148 ft | 12 kts | 171° |
| 2026-05-04 19:25 | 60.29599 | 5.22051 | 150 ft | 12 kts | 170° |
| 2026-05-04 19:25 | 60.29522 | 5.22077 | 154 ft | 10 kts | 171° |
| 2026-05-04 19:26 | 60.29427 | 5.22109 | 157 ft | 11 kts | 171° |
| 2026-05-04 19:26 | 60.29376 | 5.22125 | 159 ft | 11 kts | 170° |
| 2026-05-04 19:26 | 60.29300 | 5.22151 | 162 ft | 11 kts | 171° |
| 2026-05-04 19:26 | 60.29220 | 5.22177 | 163 ft | 13 kts | 171° |
| 2026-05-04 19:27 | 60.29125 | 5.22210 | 163 ft | 15 kts | 171° |
| 2026-05-04 19:27 | 60.29013 | 5.22248 | 162 ft | 15 kts | 170° |
| 2026-05-04 19:27 | 60.28900 | 5.22286 | 162 ft | 18 kts | 171° |
| 2026-05-04 19:27 | 60.28835 | 5.22307 | 162 ft | 5 kts | 171° |
| 2026-05-04 19:28 | 60.28803 | 5.22353 | 163 ft | 6 kts | 116° |
| 2026-05-04 19:28 | 60.28812 | 5.22411 | 166 ft | 3 kts | 59° |
| 2026-05-04 19:28 | 60.28816 | 5.22425 | 166 ft | 0 kts | 59° |
| 2026-05-04 19:28 | 60.28830 | 5.22471 | 169 ft | 6 kts | 59° |
| 2026-05-04 19:29 | 60.28837 | 5.22495 | 170 ft | 0 kts | 59° |
| 2026-05-04 19:29 | 60.28840 | 5.22504 | 171 ft | 1 kts | 58° |
| 2026-05-04 19:29 | 60.28842 | 5.22512 | 172 ft | 1 kts | 59° |
| 2026-05-04 19:29 | 60.28854 | 5.22553 | 173 ft | 6 kts | 59° |
| 2026-05-04 19:30 | 60.28859 | 5.22571 | 173 ft | 1 kts | 59° |
| 2026-05-04 19:30 | 60.28861 | 5.22576 | 173 ft | 0 kts | 59° |